Latest Coastal Weather Observations for Darwin Airport

IDD60701

Issued at 8:01 pm CST Monday 27 April 2015 (issued every 10 minutes, with the page automatically refreshed every 10 minutes)

About coastal observations | Map of coastal stations | Coastal observations for NT | Marine services | Other Formats
Station Details ID: 014015 Name: DARWIN AIRPORT Lat: -12.42 Lon: 130.89 Height: 30.4 m
Data from the previous 72 hours. | See also: Recent months at Darwin Airport
Date/Time
CST
Temp

°C
Wind Pressure Rain
since 9am
mm
Weather Cloud Vis
km
Sea
Height
m
Swell
Dir
 
Speed
knots
Gust
knots
hPa Trend Height
m
Period
s
Dir
27/07:30pm 25.0 NE 3 4 1013.2 - 0.0 - - 10 - - - -
27/07:00pm 25.8 ENE 5 5 1013.0 - 0.0 - - 10 - - - -
27/06:30pm 27.2 ENE 6 8 1012.7 - 0.0 - - 10 - - - -
27/06:00pm 28.9 ENE 6 7 1012.0 R 0.0 Fine Mostly cloudy 30 - - - -
27/05:30pm 30.3 ENE 7 8 1011.9 - 0.0 - - 10 - - - -
27/05:00pm 30.9 E 7 11 1011.4 - 0.0 - - 10 - - - -
27/04:30pm 31.2 E 8 11 1011.1 - 0.0 - - 10 - - - -
27/04:00pm 31.3 E 7 15 1010.9 - 0.0 - - 10 - - - -
27/03:30pm 30.9 E 8 12 1010.9 - 0.0 - - 10 - - - -
27/03:00pm 30.5 ESE 7 10 1010.8 R 0.0 Fine Mostly cloudy 30 - - - -
27/02:30pm 30.8 ESE 9 17 1011.3 - 0.0 - - 10 - - - -
27/02:00pm 30.8 E 10 17 1011.7 - 0.0 - - 10 - - - -
27/01:30pm 30.5 ESE 11 16 1012.1 - 0.0 - - 10 - - - -
27/01:00pm 30.4 ESE 10 15 1012.5 - 0.0 - - 10 - - - -
27/12:30pm 29.5 E 13 18 1012.8 - 0.0 - - 10 - - - -
27/12:00pm 29.6 E 16 23 1012.8 F 0.0 Fine Mostly cloudy 30 - - - -
27/11:00am 28.5 SE 15 20 1013.8 - 0.0 - - 10 - - - -
27/10:30am 27.5 SE 15 20 1014.3 - 0.0 - - 10 - - - -
27/10:00am 26.7 ESE 17 22 1014.7 - 0.0 - - 10 - - - -
27/09:30am 25.9 ESE 13 17 1014.6 - 0.0 - - 10 - - - -
27/09:00am 24.8 SE 13 16 1014.3 R 0.0 Fine Mostly cloudy 30 - - - -
27/08:30am 22.7 SE 14 18 1014.5 - 0.0 - - 10 - - - -
27/08:00am 21.6 SE 9 11 1014.1 - 0.0 - - 10 - - - -
27/07:30am 21.0 SE 9 11 1013.6 - 0.0 - - 10 - - - -
27/07:00am 20.9 SSE 10 13 1013.1 - 0.0 - - 10 - - - -
27/06:30am 21.4 SE 13 18 1012.7 - 0.0 - - 10 - - - -
27/06:00am 21.4 E 12 15 1012.2 F 0.0 Smoke Mostly cloudy 25 - - - -
27/05:30am 21.5 SE 10 14 1012.4 - 0.0 - - 10 - - - -
27/05:00am 21.7 SE 10 14 1012.4 - 0.0 - - 10 - - - -
27/04:30am 21.9 SE 11 14 1012.5 - 0.0 - - 10 - - - -
27/04:00am 21.8 SE 12 15 1012.5 - 0.0 - - 10 - - - -
27/03:30am 22.1 SE 12 16 1012.4 - 0.0 - - 10 - - - -
27/03:00am 22.5 SE 10 13 1012.1 F 0.0 Fine Partly cloudy 30 - - - -
27/02:30am 22.5 SE 9 12 1012.4 - 0.0 - - 10 - - - -
27/02:00am 23.1 SSE 10 14 1012.6 - 0.0 - - 10 - - - -
27/01:30am 24.0 SSE 9 11 1012.9 - 0.0 - - 10 - - - -
27/01:00am 24.4 SSE 8 10 1013.1 - 0.0 - - 10 - - - -
27/12:30am 24.3 SSE 8 11 1013.4 - 0.0 - - 10 - - - -
 
Date/Time
CST
Temp

°C
Wind Pressure Rain
since 9am
mm
Weather Cloud Vis
km
Sea
Height
m
Swell
Dir
 
Speed
knots
Gust
knots
hPa Trend Height
m
Period
s
Dir
26/11:30pm 24.9 SSE 7 8 1013.7 - 0.0 - - 10 - - - -
26/11:00pm 24.6 SSE 7 8 1013.8 - 0.0 - - 10 - - - -
26/10:30pm 24.5 SSE 7 7 1013.9 - 0.0 - - 10 - - - -
26/10:00pm 25.4 S 8 11 1014.1 - 0.0 - - 10 - - - -
26/09:30pm 23.2 E 4 4 1013.8 - 0.0 - - 10 - - - -
26/09:00pm 24.0 ENE 4 5 1013.4 R 0.0 Fine Partly cloudy 30 - - - -
26/08:30pm 24.3 NE 5 5 1013.3 - 0.0 - - 10 - - - -
26/08:00pm 24.8 NE 5 6 1013.0 - 0.0 - - 10 - - - -
26/07:30pm 25.3 NE 6 7 1012.4 - 0.0 - - 10 - - - -
26/07:00pm 26.3 ENE 4 5 1012.0 - 0.0 - - 10 - - - -
26/06:30pm 27.9 ENE 6 6 1011.6 - 0.0 - - 10 - - - -
26/06:00pm 29.5 ENE 6 8 1010.8 F 0.0 Fine Mostly cloudy 30 - - - -
26/05:30pm 30.6 ENE 8 10 1010.9 - 0.0 - - 10 - - - -
26/05:00pm 31.3 E 9 11 1010.6 - 0.0 - - 10 - - - -
26/04:30pm 31.4 E 11 14 1010.5 - 0.0 - - 10 - - - -
26/04:00pm 31.6 E 11 17 1010.5 - 0.0 - - 10 - - - -
26/03:30pm 32.1 ENE 11 16 1010.6 - 0.0 - - 10 - - - -
26/03:00pm 31.2 ESE 10 13 1010.6 R 0.0 Fine Mostly cloudy 30 - - - -
26/02:30pm 31.8 E 11 18 1011.2 - 0.0 - - 10 - - - -
26/02:00pm 31.9 E 14 18 1011.5 - 0.0 - - 10 - - - -
26/01:30pm 31.1 ESE 11 20 1011.7 - 0.0 - - 10 - - - -
26/01:00pm 30.9 E 14 21 1012.2 - 0.0 - Mostly clear 10 - - - -
26/12:30pm 30.2 SE 12 17 1012.7 - 0.0 - Mostly clear 10 - - - -
26/12:00pm 30.0 SE 12 16 1012.8 R 0.0 Fine Mostly cloudy 30 - - - -
26/11:30am 29.9 ESE 12 16 1013.6 - 0.0 - Mostly clear 10 - - - -
26/11:00am 28.9 ESE 13 17 1013.9 - 0.0 - Mostly clear 10 - - - -
26/10:30am 28.2 SE 12 16 1014.1 - 0.0 - Mostly clear 10 - - - -
26/10:00am 27.3 SE 12 16 1014.0 - 0.0 - Mostly clear 10 - - - -
26/09:30am 26.7 ESE 12 17 1013.7 - 0.0 - Mostly clear 10 - - - -
26/09:00am 25.6 SE 12 15 1013.0 R 0.0 Fine Partly cloudy 30 - - - -
26/08:30am 24.2 SE 11 15 1013.1 - 0.0 - Mostly clear 10 - - - -
26/08:00am 23.2 ESE 11 14 1013.0 - 0.0 - Mostly clear 10 - - - -
26/07:30am 22.9 SE 10 14 1012.6 - 0.0 - Mostly clear 10 - - - -
26/07:00am 22.7 SE 8 11 1012.0 - 0.0 - Mostly clear 10 - - - -
26/06:30am 22.9 SE 7 8 1011.7 - 0.0 - - 10 - - - -
26/06:00am 23.6 SE 7 8 1011.1 R 0.0 Fine Partly cloudy 30 - - - -
26/05:30am 23.7 SE 6 7 1011.2 - 0.0 - - 10 - - - -
26/05:00am 23.3 SE 4 5 1011.1 - 0.0 - - 10 - - - -
26/04:30am 23.1 E 4 4 1011.2 - 0.0 - - 10 - - - -
26/04:00am 23.6 E 5 7 1011.2 - 0.0 - - 10 - - - -
26/03:30am 23.7 ESE 5 5 1011.1 - 0.0 - - 10 - - - -
26/03:00am 24.3 SSE 5 6 1010.8 R 0.0 Fine Partly cloudy 30 - - - -
26/02:30am 24.9 S 5 6 1011.3 - 0.0 - - 10 - - - -
26/02:00am 25.6 S 5 6 1011.4 - 0.0 - - 10 - - - -
26/01:30am 25.3 S 6 7 1011.7 - 0.0 - - 10 - - - -
26/01:00am 25.3 S 5 7 1012.0 - 0.0 - - 10 - - - -
26/12:30am 25.5 S 5 5 1012.1 - 0.0 - - 10 - - - -
26/12:00am 25.8 SSE 5 6 1011.6 R 0.0 Fine Partly cloudy 30 - - - -
 
Date/Time
CST
Temp

°C
Wind Pressure Rain
since 9am
mm
Weather Cloud Vis
km
Sea
Height
m
Swell
Dir
 
Speed
knots
Gust
knots
hPa Trend Height
m
Period
s
Dir
25/11:30pm 25.9 SSE 5 6 1012.0 - 0.0 - - 10 - - - -
25/11:00pm 26.0 S 4 5 1012.2 - 0.0 - - 10 - - - -
25/10:30pm 26.6 S 5 6 1012.3 - 0.0 - - 10 - - - -
25/10:00pm 26.6 S 4 8 1012.2 - 0.0 - - 10 - - - -
25/09:30pm 26.2 NE 4 5 1011.8 - 0.0 - - 10 - - - -
25/09:00pm 26.7 NNE 5 6 1011.2 R 0.0 Fine Partly cloudy 30 - - - -
25/08:30pm 27.2 NNE 6 8 1011.3 - 0.0 - - 10 - - - -
25/08:00pm 27.6 NNE 7 9 1010.8 - 0.0 - - 10 - - - -
25/07:30pm 28.1 NNE 7 8 1010.5 - 0.0 - - 10 - - - -
25/07:00pm 28.6 NNE 7 9 1010.0 - 0.0 - - 10 - - - -
25/06:30pm 29.3 NNE 8 11 1009.6 - 0.0 - Mostly clear 10 - - - -
25/06:00pm 30.2 NNE 9 11 1009.2 R 0.0 Fine Partly cloudy 30 - - - -
25/05:30pm 31.0 N 9 11 1009.1 - 0.0 - Mostly clear 10 - - - -
25/05:00pm 31.6 N 9 11 1008.7 - 0.0 - Mostly clear 10 - - - -
25/04:30pm 31.4 N 9 13 1008.6 - 0.0 - Mostly clear 10 - - - -
25/04:00pm 31.1 N 9 13 1008.4 - 0.0 - Mostly clear 10 - - - -
25/03:30pm 31.5 N 11 16 1008.4 - 0.0 - Mostly clear 10 - - - -
25/03:00pm 31.2 NNW 8 12 1008.3 R 0.0 Fine Partly cloudy 30 - - - -
25/02:30pm 32.3 WNW 10 14 1008.8 - 0.0 - Partly cloudy 10 - - - -
25/02:00pm 33.0 E 7 14 1009.3 - 0.0 - - 10 - - - -
25/01:30pm 33.1 E 11 15 1009.6 - 0.0 - Partly cloudy 10 - - - -
25/01:00pm 33.2 E 8 14 1009.9 - 0.0 - Partly cloudy 10 - - - -
25/12:30pm 33.0 E 7 12 1010.2 - 0.0 - Mostly clear 10 - - - -
25/12:00pm 32.0 E 8 10 1010.1 F 0.0 Fine Partly cloudy 30 - - - -
25/11:30am 30.4 E 8 14 1010.9 - 0.0 - Mostly clear 10 - - - -
25/11:00am 30.3 E 8 14 1011.3 - 0.0 - Mostly clear 10 - - - -
25/10:30am 30.2 E 7 10 1011.5 - 0.0 - Mostly clear 10 - - - -
25/10:00am 29.6 E 8 12 1011.5 - 0.0 - Mostly clear 10 - - - -
25/09:30am 29.2 E 8 10 1011.4 - 0.0 - Mostly clear 10 - - - -
25/09:00am 28.3 E 7 9 1010.9 R 0.0 Fine Mostly cloudy 30 - - - -
25/08:30am 27.4 ENE 7 9 1011.0 - 0.0 - Mostly clear 10 - - - -
25/08:00am 26.3 E 5 7 1010.7 - 0.0 - Mostly clear 10 - - - -
25/07:30am 25.1 E 5 7 1010.4 - 0.0 - Mostly clear 10 - - - -
25/07:00am 24.5 ESE 5 6 1010.2 - 0.0 - - 10 - - - -
25/06:30am 24.4 E 6 6 1009.8 - 0.0 - Mostly clear 10 - - - -
25/06:00am 23.8 E 5 6 1009.3 F 0.0 Fine Mostly clear 30 - - - -
25/05:30am 24.0 E 6 7 1009.6 - 0.0 - Mostly clear 10 - - - -
25/05:00am 24.4 E 4 5 1009.6 - 0.0 - - 10 - - - -
25/04:30am 24.2 E 5 6 1009.7 - 0.0 - - 10 - - - -
25/04:00am 24.4 SSE 3 4 1009.9 - 0.0 - - 10 - - - -
25/03:30am 25.0 CALM 0 1 1009.9 - 0.0 - - 10 - - - -
25/03:00am 26.7 SW 5 6 1009.5 S 0.0 Fine Mostly clear 30 - - - -
25/02:30am 26.8 SW 5 6 1009.9 - 0.0 - - 10 - - - -
25/02:00am 27.5 SW 7 9 1009.8 - 0.0 - Mostly clear 10 - - - -
25/01:30am 28.1 WSW 6 7 1010.1 - 0.0 - Mostly clear 10 - - - -
25/01:00am 28.3 SW 6 7 1010.4 - 0.0 - Mostly clear 10 - - - -
25/12:30am 28.4 SSW 5 6 1010.7 - 0.0 - Mostly clear 10 - - - -
25/12:00am 28.6 WSW 5 6 1010.6 F 0.0 Fine Mostly cloudy 30 - - - -
 
Date/Time
CST
Temp

°C
Wind Pressure Rain
since 9am
mm
Weather Cloud Vis
km
Sea
Height
m
Swell
Dir
 
Speed
knots
Gust
knots
hPa Trend Height
m
Period
s
Dir
24/11:30pm 28.6 WSW 4 5 1011.2 - 0.0 - Mostly clear 10 - - - -
24/11:00pm 28.6 SW 6 7 1011.3 - 0.0 - Mostly clear 10 - - - -
24/10:30pm 28.6 SW 7 8 1011.5 - 0.0 - Mostly clear 10 - - - -
24/10:00pm 28.5 WSW 5 5 1011.4 - 0.0 - Mostly clear 10 - - - -
24/09:30pm 28.3 W 5 6 1011.4 - 0.0 - Mostly clear 10 - - - -
24/09:00pm 28.0 WNW 4 5 1010.9 R 0.0 Fine Mostly cloudy 30 - - - -
24/08:30pm 28.6 WNW 4 5 1010.6 - 0.0 - Mostly clear 10 - - - -

Other Formats:

Comma delimited format used in spreadsheet applications
http://www.bom.gov.au/fwo/IDD60701/IDD60701.94120.axf

JavaScript Object Notation format (JSON) in row-major order
http://www.bom.gov.au/fwo/IDD60701/IDD60701.94120.json